sensor_id;sensor_type;location;lat;lon;timestamp;P1;durP1;ratioP1;P2;durP2;ratioP2
61527;SDS011;47395;42.032;-8.634;2022-09-03T00:00:16;8.60;;;4.32;;
61527;SDS011;47395;42.032;-8.634;2022-09-03T00:02:21;15.82;;;4.28;;
61527;SDS011;47395;42.032;-8.634;2022-09-03T00:04:29;11.27;;;4.55;;
61527;SDS011;47395;42.032;-8.634;2022-09-03T00:06:40;12.93;;;4.35;;
61527;SDS011;47395;42.032;-8.634;2022-09-03T00:09:08;12.52;;;4.20;;
61527;SDS011;47395;42.032;-8.634;2022-09-03T00:11:17;12.10;;;4.20;;
61527;SDS011;47395;42.032;-8.634;2022-09-03T00:13:43;7.70;;;3.88;;
61527;SDS011;47395;42.032;-8.634;2022-09-03T00:15:48;12.60;;;4.03;;
61527;SDS011;47395;42.032;-8.634;2022-09-03T00:18:04;9.18;;;4.40;;
61527;SDS011;47395;42.032;-8.634;2022-09-03T00:20:15;15.70;;;4.20;;
61527;SDS011;47395;42.032;-8.634;2022-09-03T00:22:23;12.15;;;4.03;;
61527;SDS011;47395;42.032;-8.634;2022-09-03T00:24:30;9.75;;;4.07;;
61527;SDS011;47395;42.032;-8.634;2022-09-03T00:26:35;7.15;;;4.05;;
61527;SDS011;47395;42.032;-8.634;2022-09-03T00:28:58;11.50;;;3.78;;
61527;SDS011;47395;42.032;-8.634;2022-09-03T00:31:28;7.68;;;3.80;;
61527;SDS011;47395;42.032;-8.634;2022-09-03T00:33:38;7.25;;;3.92;;
61527;SDS011;47395;42.032;-8.634;2022-09-03T00:35:53;13.15;;;4.15;;
61527;SDS011;47395;42.032;-8.634;2022-09-03T00:38:04;13.13;;;4.05;;
61527;SDS011;47395;42.032;-8.634;2022-09-03T00:40:05;15.93;;;4.90;;
61527;SDS011;47395;42.032;-8.634;2022-09-03T00:42:33;12.70;;;4.07;;
61527;SDS011;47395;42.032;-8.634;2022-09-03T00:45:02;10.45;;;4.00;;
61527;SDS011;47395;42.032;-8.634;2022-09-03T00:53:02;10.52;;;3.67;;
61527;SDS011;47395;42.032;-8.634;2022-09-03T00:55:21;7.53;;;3.92;;
61527;SDS011;47395;42.032;-8.634;2022-09-03T00:57:46;19.17;;;4.15;;
61527;SDS011;47395;42.032;-8.634;2022-09-03T01:00:14;15.73;;;4.30;;
61527;SDS011;47395;42.032;-8.634;2022-09-03T01:02:35;10.90;;;4.22;;
61527;SDS011;47395;42.032;-8.634;2022-09-03T01:04:58;11.32;;;4.20;;
61527;SDS011;47395;42.032;-8.634;2022-09-03T01:09:43;13.40;;;4.05;;
61527;SDS011;47395;42.032;-8.634;2022-09-03T01:12:24;19.05;;;3.97;;
61527;SDS011;47395;42.032;-8.634;2022-09-03T01:17:05;10.98;;;4.13;;
61527;SDS011;47395;42.032;-8.634;2022-09-03T01:19:46;17.52;;;4.28;;
61527;SDS011;47395;42.032;-8.634;2022-09-03T01:25:09;12.93;;;4.70;;
61527;SDS011;47395;42.032;-8.634;2022-09-03T01:27:24;20.33;;;4.50;;
61527;SDS011;47395;42.032;-8.634;2022-09-03T01:29:51;12.30;;;4.70;;
61527;SDS011;47395;42.032;-8.634;2022-09-03T01:32:24;16.77;;;4.47;;
61527;SDS011;47395;42.032;-8.634;2022-09-03T01:42:22;11.02;;;4.93;;
61527;SDS011;47395;42.032;-8.634;2022-09-03T01:44:58;12.00;;;4.57;;
61527;SDS011;47395;42.032;-8.634;2022-09-03T01:47:32;16.40;;;4.30;;
61527;SDS011;47395;42.032;-8.634;2022-09-03T01:50:04;14.38;;;4.47;;
61527;SDS011;47395;42.032;-8.634;2022-09-03T01:52:10;9.93;;;4.45;;
61527;SDS011;47395;42.032;-8.634;2022-09-03T01:54:25;16.35;;;4.88;;
61527;SDS011;47395;42.032;-8.634;2022-09-03T01:57:26;10.07;;;4.70;;
61527;SDS011;47395;42.032;-8.634;2022-09-03T01:59:19;11.50;;;4.38;;
61527;SDS011;47395;42.032;-8.634;2022-09-03T02:01:27;11.07;;;4.53;;
61527;SDS011;47395;42.032;-8.634;2022-09-03T02:03:32;9.70;;;4.18;;
61527;SDS011;47395;42.032;-8.634;2022-09-03T02:05:37;16.95;;;4.25;;
61527;SDS011;47395;42.032;-8.634;2022-09-03T02:07:40;5.90;;;3.10;;
61527;SDS011;47395;42.032;-8.634;2022-09-03T02:09:42;10.98;;;4.30;;
61527;SDS011;47395;42.032;-8.634;2022-09-03T02:11:44;13.00;;;4.35;;
61527;SDS011;47395;42.032;-8.634;2022-09-03T02:13:52;11.88;;;4.38;;
61527;SDS011;47395;42.032;-8.634;2022-09-03T02:15:58;16.40;;;4.75;;
61527;SDS011;47395;42.032;-8.634;2022-09-03T02:18:03;13.10;;;4.03;;
61527;SDS011;47395;42.032;-8.634;2022-09-03T02:20:09;8.07;;;4.20;;
61527;SDS011;47395;42.032;-8.634;2022-09-03T02:22:11;9.23;;;4.18;;
61527;SDS011;47395;42.032;-8.634;2022-09-03T02:24:12;11.82;;;5.18;;
61527;SDS011;47395;42.032;-8.634;2022-09-03T02:26:15;12.93;;;4.65;;
61527;SDS011;47395;42.032;-8.634;2022-09-03T02:28:20;14.55;;;4.68;;
61527;SDS011;47395;42.032;-8.634;2022-09-03T02:30:22;11.48;;;4.40;;
61527;SDS011;47395;42.032;-8.634;2022-09-03T02:32:24;12.77;;;4.82;;
61527;SDS011;47395;42.032;-8.634;2022-09-03T02:34:26;8.43;;;4.53;;
61527;SDS011;47395;42.032;-8.634;2022-09-03T02:36:31;13.43;;;4.47;;
61527;SDS011;47395;42.032;-8.634;2022-09-03T02:38:34;9.60;;;4.30;;
61527;SDS011;47395;42.032;-8.634;2022-09-03T02:40:35;13.90;;;5.05;;
61527;SDS011;47395;42.032;-8.634;2022-09-03T02:42:36;8.20;;;4.18;;
61527;SDS011;47395;42.032;-8.634;2022-09-03T02:44:52;12.05;;;5.07;;
61527;SDS011;47395;42.032;-8.634;2022-09-03T02:47:01;8.85;;;4.78;;
61527;SDS011;47395;42.032;-8.634;2022-09-03T02:49:05;14.10;;;4.53;;
61527;SDS011;47395;42.032;-8.634;2022-09-03T02:51:06;13.07;;;4.32;;
61527;SDS011;47395;42.032;-8.634;2022-09-03T02:53:06;7.82;;;4.10;;
61527;SDS011;47395;42.032;-8.634;2022-09-03T02:55:08;9.15;;;4.50;;
61527;SDS011;47395;42.032;-8.634;2022-09-03T02:57:09;12.07;;;4.97;;
61527;SDS011;47395;42.032;-8.634;2022-09-03T02:59:13;15.30;;;4.88;;
61527;SDS011;47395;42.032;-8.634;2022-09-03T03:01:14;14.98;;;4.85;;
61527;SDS011;47395;42.032;-8.634;2022-09-03T03:03:14;14.95;;;5.00;;
61527;SDS011;47395;42.032;-8.634;2022-09-03T03:05:17;16.63;;;4.68;;
61527;SDS011;47395;42.032;-8.634;2022-09-03T03:07:27;13.75;;;5.43;;
61527;SDS011;47395;42.032;-8.634;2022-09-03T03:09:31;9.70;;;5.20;;
61527;SDS011;47395;42.032;-8.634;2022-09-03T03:11:32;11.07;;;5.35;;
61527;SDS011;47395;42.032;-8.634;2022-09-03T03:13:33;15.45;;;5.82;;
61527;SDS011;47395;42.032;-8.634;2022-09-03T03:15:34;13.20;;;6.05;;
61527;SDS011;47395;42.032;-8.634;2022-09-03T03:17:35;9.60;;;5.88;;
61527;SDS011;47395;42.032;-8.634;2022-09-03T03:19:36;10.75;;;5.22;;
61527;SDS011;47395;42.032;-8.634;2022-09-03T03:21:37;20.63;;;5.35;;
61527;SDS011;47395;42.032;-8.634;2022-09-03T03:23:38;19.17;;;5.32;;
61527;SDS011;47395;42.032;-8.634;2022-09-03T03:25:39;10.05;;;5.30;;
61527;SDS011;47395;42.032;-8.634;2022-09-03T03:27:40;19.58;;;5.38;;
61527;SDS011;47395;42.032;-8.634;2022-09-03T03:29:41;15.10;;;5.20;;
61527;SDS011;47395;42.032;-8.634;2022-09-03T03:31:42;15.98;;;5.00;;
61527;SDS011;47395;42.032;-8.634;2022-09-03T03:33:43;11.80;;;4.78;;
61527;SDS011;47395;42.032;-8.634;2022-09-03T03:35:44;11.70;;;4.70;;
61527;SDS011;47395;42.032;-8.634;2022-09-03T03:37:45;14.82;;;4.50;;
61527;SDS011;47395;42.032;-8.634;2022-09-03T03:39:46;8.85;;;4.03;;
61527;SDS011;47395;42.032;-8.634;2022-09-03T03:41:47;9.27;;;4.03;;
61527;SDS011;47395;42.032;-8.634;2022-09-03T03:43:54;11.80;;;3.88;;
61527;SDS011;47395;42.032;-8.634;2022-09-03T03:45:57;5.43;;;3.67;;
61527;SDS011;47395;42.032;-8.634;2022-09-03T03:47:58;10.35;;;3.88;;
61527;SDS011;47395;42.032;-8.634;2022-09-03T03:49:59;6.55;;;4.10;;
61527;SDS011;47395;42.032;-8.634;2022-09-03T03:52:00;8.13;;;4.47;;
61527;SDS011;47395;42.032;-8.634;2022-09-03T03:54:02;10.70;;;4.20;;
61527;SDS011;47395;42.032;-8.634;2022-09-03T03:56:04;7.78;;;4.13;;
61527;SDS011;47395;42.032;-8.634;2022-09-03T03:58:07;6.68;;;4.10;;
61527;SDS011;47395;42.032;-8.634;2022-09-03T04:00:08;6.70;;;4.15;;
61527;SDS011;47395;42.032;-8.634;2022-09-03T04:04:41;5.32;;;3.88;;
61527;SDS011;47395;42.032;-8.634;2022-09-03T04:06:42;6.55;;;3.63;;
61527;SDS011;47395;42.032;-8.634;2022-09-03T04:08:44;5.10;;;4.10;;
61527;SDS011;47395;42.032;-8.634;2022-09-03T04:10:46;4.38;;;3.83;;
61527;SDS011;47395;42.032;-8.634;2022-09-03T04:12:47;7.30;;;4.30;;
61527;SDS011;47395;42.032;-8.634;2022-09-03T04:14:47;13.40;;;4.30;;
61527;SDS011;47395;42.032;-8.634;2022-09-03T04:16:48;9.98;;;4.13;;
61527;SDS011;47395;42.032;-8.634;2022-09-03T04:18:50;5.85;;;4.10;;
61527;SDS011;47395;42.032;-8.634;2022-09-03T04:20:52;6.85;;;4.13;;
61527;SDS011;47395;42.032;-8.634;2022-09-03T04:22:54;10.60;;;4.93;;
61527;SDS011;47395;42.032;-8.634;2022-09-03T04:24:55;8.52;;;4.55;;
61527;SDS011;47395;42.032;-8.634;2022-09-03T04:26:56;11.73;;;4.28;;
61527;SDS011;47395;42.032;-8.634;2022-09-03T04:29:00;12.85;;;4.63;;
61527;SDS011;47395;42.032;-8.634;2022-09-03T04:31:04;9.05;;;5.00;;
61527;SDS011;47395;42.032;-8.634;2022-09-03T04:33:06;10.63;;;4.47;;
61527;SDS011;47395;42.032;-8.634;2022-09-03T04:35:07;7.07;;;4.38;;
61527;SDS011;47395;42.032;-8.634;2022-09-03T04:37:09;10.38;;;4.72;;
61527;SDS011;47395;42.032;-8.634;2022-09-03T04:39:09;10.73;;;4.80;;
61527;SDS011;47395;42.032;-8.634;2022-09-03T04:41:11;6.97;;;4.93;;
61527;SDS011;47395;42.032;-8.634;2022-09-03T04:43:13;7.35;;;4.13;;
61527;SDS011;47395;42.032;-8.634;2022-09-03T04:45:14;12.98;;;5.32;;
61527;SDS011;47395;42.032;-8.634;2022-09-03T04:47:17;10.80;;;5.03;;
61527;SDS011;47395;42.032;-8.634;2022-09-03T04:49:18;7.78;;;4.70;;
61527;SDS011;47395;42.032;-8.634;2022-09-03T04:51:20;14.30;;;5.32;;
61527;SDS011;47395;42.032;-8.634;2022-09-03T04:53:23;9.18;;;4.78;;
61527;SDS011;47395;42.032;-8.634;2022-09-03T04:55:24;9.43;;;4.60;;
61527;SDS011;47395;42.032;-8.634;2022-09-03T04:57:25;9.65;;;4.63;;
61527;SDS011;47395;42.032;-8.634;2022-09-03T04:59:26;7.90;;;4.85;;
61527;SDS011;47395;42.032;-8.634;2022-09-03T05:01:28;8.40;;;4.72;;
61527;SDS011;47395;42.032;-8.634;2022-09-03T05:03:31;11.32;;;4.78;;
61527;SDS011;47395;42.032;-8.634;2022-09-03T05:05:32;8.02;;;4.93;;
61527;SDS011;47395;42.032;-8.634;2022-09-03T05:07:33;7.60;;;4.75;;
61527;SDS011;47395;42.032;-8.634;2022-09-03T05:09:37;10.02;;;4.80;;
61527;SDS011;47395;42.032;-8.634;2022-09-03T05:11:38;12.02;;;4.75;;
61527;SDS011;47395;42.032;-8.634;2022-09-03T05:13:39;8.13;;;4.78;;
61527;SDS011;47395;42.032;-8.634;2022-09-03T05:15:40;6.07;;;4.35;;
61527;SDS011;47395;42.032;-8.634;2022-09-03T05:17:44;12.18;;;4.53;;
61527;SDS011;47395;42.032;-8.634;2022-09-03T05:19:45;6.10;;;4.38;;
61527;SDS011;47395;42.032;-8.634;2022-09-03T05:21:46;8.88;;;4.07;;
61527;SDS011;47395;42.032;-8.634;2022-09-03T05:23:47;9.02;;;4.35;;
61527;SDS011;47395;42.032;-8.634;2022-09-03T05:26:03;11.25;;;4.53;;
61527;SDS011;47395;42.032;-8.634;2022-09-03T05:28:08;8.85;;;4.40;;
61527;SDS011;47395;42.032;-8.634;2022-09-03T05:30:09;12.13;;;4.82;;
61527;SDS011;47395;42.032;-8.634;2022-09-03T05:32:11;6.40;;;4.85;;
61527;SDS011;47395;42.032;-8.634;2022-09-03T05:34:12;11.18;;;5.15;;
61527;SDS011;47395;42.032;-8.634;2022-09-03T05:36:14;5.45;;;4.75;;
61527;SDS011;47395;42.032;-8.634;2022-09-03T05:38:17;8.45;;;4.93;;
61527;SDS011;47395;42.032;-8.634;2022-09-03T05:40:17;6.88;;;4.43;;
61527;SDS011;47395;42.032;-8.634;2022-09-03T05:42:18;5.32;;;4.82;;
61527;SDS011;47395;42.032;-8.634;2022-09-03T05:44:20;11.82;;;4.45;;
61527;SDS011;47395;42.032;-8.634;2022-09-03T05:46:22;5.20;;;4.45;;
61527;SDS011;47395;42.032;-8.634;2022-09-03T05:48:31;6.07;;;4.55;;
61527;SDS011;47395;42.032;-8.634;2022-09-03T05:50:34;7.25;;;4.20;;
61527;SDS011;47395;42.032;-8.634;2022-09-03T05:52:35;8.45;;;4.25;;
61527;SDS011;47395;42.032;-8.634;2022-09-03T05:54:37;5.90;;;4.57;;
61527;SDS011;47395;42.032;-8.634;2022-09-03T05:56:38;7.72;;;4.70;;
61527;SDS011;47395;42.032;-8.634;2022-09-03T05:58:40;8.75;;;4.70;;
61527;SDS011;47395;42.032;-8.634;2022-09-03T06:00:44;8.68;;;4.55;;
61527;SDS011;47395;42.032;-8.634;2022-09-03T06:02:50;5.80;;;4.15;;
61527;SDS011;47395;42.032;-8.634;2022-09-03T06:04:52;5.53;;;4.65;;
61527;SDS011;47395;42.032;-8.634;2022-09-03T06:06:53;5.10;;;4.50;;
61527;SDS011;47395;42.032;-8.634;2022-09-03T06:08:55;7.22;;;4.68;;
61527;SDS011;47395;42.032;-8.634;2022-09-03T06:10:59;10.18;;;4.72;;
61527;SDS011;47395;42.032;-8.634;2022-09-03T06:13:02;7.30;;;4.75;;
61527;SDS011;47395;42.032;-8.634;2022-09-03T06:15:03;9.90;;;4.82;;
61527;SDS011;47395;42.032;-8.634;2022-09-03T06:17:05;7.57;;;4.93;;
61527;SDS011;47395;42.032;-8.634;2022-09-03T06:19:06;6.03;;;4.85;;
61527;SDS011;47395;42.032;-8.634;2022-09-03T06:21:08;7.70;;;4.80;;
61527;SDS011;47395;42.032;-8.634;2022-09-03T06:23:09;8.05;;;4.93;;
61527;SDS011;47395;42.032;-8.634;2022-09-03T06:25:10;7.45;;;4.93;;
61527;SDS011;47395;42.032;-8.634;2022-09-03T06:27:11;10.80;;;4.78;;
61527;SDS011;47395;42.032;-8.634;2022-09-03T06:29:12;7.95;;;5.05;;
61527;SDS011;47395;42.032;-8.634;2022-09-03T06:31:14;9.85;;;5.25;;
61527;SDS011;47395;42.032;-8.634;2022-09-03T06:33:17;15.73;;;4.88;;
61527;SDS011;47395;42.032;-8.634;2022-09-03T06:35:18;8.75;;;4.70;;
61527;SDS011;47395;42.032;-8.634;2022-09-03T06:37:19;6.82;;;4.75;;
61527;SDS011;47395;42.032;-8.634;2022-09-03T06:39:19;6.93;;;4.75;;
61527;SDS011;47395;42.032;-8.634;2022-09-03T06:41:27;5.88;;;4.20;;
61527;SDS011;47395;42.032;-8.634;2022-09-03T06:43:38;4.93;;;4.43;;
61527;SDS011;47395;42.032;-8.634;2022-09-03T06:45:40;8.32;;;4.05;;
61527;SDS011;47395;42.032;-8.634;2022-09-03T06:47:41;4.80;;;3.50;;
61527;SDS011;47395;42.032;-8.634;2022-09-03T06:49:42;8.60;;;4.57;;
61527;SDS011;47395;42.032;-8.634;2022-09-03T06:51:43;6.80;;;3.70;;
61527;SDS011;47395;42.032;-8.634;2022-09-03T06:53:45;10.88;;;3.72;;
61527;SDS011;47395;42.032;-8.634;2022-09-03T06:55:55;7.03;;;3.88;;
61527;SDS011;47395;42.032;-8.634;2022-09-03T06:57:57;7.50;;;3.83;;
61527;SDS011;47395;42.032;-8.634;2022-09-03T06:59:58;7.63;;;3.67;;
61527;SDS011;47395;42.032;-8.634;2022-09-03T07:01:59;7.32;;;3.60;;
61527;SDS011;47395;42.032;-8.634;2022-09-03T07:04:02;5.57;;;3.45;;
61527;SDS011;47395;42.032;-8.634;2022-09-03T07:06:05;6.13;;;3.65;;
61527;SDS011;47395;42.032;-8.634;2022-09-03T07:08:08;6.90;;;3.65;;
61527;SDS011;47395;42.032;-8.634;2022-09-03T07:10:09;7.38;;;3.70;;
61527;SDS011;47395;42.032;-8.634;2022-09-03T07:12:13;3.92;;;3.55;;
61527;SDS011;47395;42.032;-8.634;2022-09-03T07:14:17;6.40;;;3.60;;
61527;SDS011;47395;42.032;-8.634;2022-09-03T07:16:20;6.47;;;3.83;;
61527;SDS011;47395;42.032;-8.634;2022-09-03T07:18:23;10.07;;;4.47;;
61527;SDS011;47395;42.032;-8.634;2022-09-03T07:20:23;10.90;;;4.72;;
61527;SDS011;47395;42.032;-8.634;2022-09-03T07:22:24;11.27;;;5.18;;
61527;SDS011;47395;42.032;-8.634;2022-09-03T07:24:25;13.55;;;4.47;;
61527;SDS011;47395;42.032;-8.634;2022-09-03T07:26:28;5.82;;;4.90;;
61527;SDS011;47395;42.032;-8.634;2022-09-03T07:28:30;18.30;;;4.80;;
61527;SDS011;47395;42.032;-8.634;2022-09-03T07:30:31;10.80;;;5.30;;
61527;SDS011;47395;42.032;-8.634;2022-09-03T07:32:32;8.82;;;5.10;;
61527;SDS011;47395;42.032;-8.634;2022-09-03T07:34:33;11.88;;;5.10;;
61527;SDS011;47395;42.032;-8.634;2022-09-03T07:36:36;15.10;;;4.82;;
61527;SDS011;47395;42.032;-8.634;2022-09-03T07:38:42;11.35;;;4.80;;
61527;SDS011;47395;42.032;-8.634;2022-09-03T07:40:44;8.88;;;4.57;;
61527;SDS011;47395;42.032;-8.634;2022-09-03T07:42:46;6.63;;;3.50;;
61527;SDS011;47395;42.032;-8.634;2022-09-03T07:44:47;5.72;;;3.53;;
61527;SDS011;47395;42.032;-8.634;2022-09-03T07:46:48;7.13;;;3.22;;
61527;SDS011;47395;42.032;-8.634;2022-09-03T07:48:50;13.25;;;3.28;;
61527;SDS011;47395;42.032;-8.634;2022-09-03T07:50:56;4.60;;;2.92;;
61527;SDS011;47395;42.032;-8.634;2022-09-03T07:53:03;8.38;;;3.17;;
61527;SDS011;47395;42.032;-8.634;2022-09-03T07:55:04;5.00;;;3.13;;
61527;SDS011;47395;42.032;-8.634;2022-09-03T07:57:05;10.43;;;3.13;;
61527;SDS011;47395;42.032;-8.634;2022-09-03T07:59:06;7.60;;;3.05;;
61527;SDS011;47395;42.032;-8.634;2022-09-03T08:01:09;7.78;;;3.47;;
61527;SDS011;47395;42.032;-8.634;2022-09-03T08:03:11;10.00;;;3.38;;
61527;SDS011;47395;42.032;-8.634;2022-09-03T08:05:13;12.93;;;3.85;;
61527;SDS011;47395;42.032;-8.634;2022-09-03T08:07:14;13.48;;;3.38;;
61527;SDS011;47395;42.032;-8.634;2022-09-03T08:09:14;8.80;;;2.85;;
61527;SDS011;47395;42.032;-8.634;2022-09-03T08:11:17;5.13;;;3.05;;
61527;SDS011;47395;42.032;-8.634;2022-09-03T08:13:19;4.82;;;2.90;;
61527;SDS011;47395;42.032;-8.634;2022-09-03T08:15:20;7.45;;;2.97;;
61527;SDS011;47395;42.032;-8.634;2022-09-03T08:17:21;10.05;;;3.15;;
61527;SDS011;47395;42.032;-8.634;2022-09-03T08:19:22;6.03;;;3.00;;
61527;SDS011;47395;42.032;-8.634;2022-09-03T08:21:23;6.63;;;2.83;;
61527;SDS011;47395;42.032;-8.634;2022-09-03T08:23:25;4.93;;;2.75;;
61527;SDS011;47395;42.032;-8.634;2022-09-03T08:25:26;7.50;;;3.03;;
61527;SDS011;47395;42.032;-8.634;2022-09-03T08:27:27;7.95;;;3.10;;
61527;SDS011;47395;42.032;-8.634;2022-09-03T08:29:28;6.03;;;3.28;;
61527;SDS011;47395;42.032;-8.634;2022-09-03T08:31:29;4.90;;;2.88;;
61527;SDS011;47395;42.032;-8.634;2022-09-03T08:33:31;5.68;;;3.08;;
61527;SDS011;47395;42.032;-8.634;2022-09-03T08:35:38;8.25;;;3.10;;
61527;SDS011;47395;42.032;-8.634;2022-09-03T08:37:39;4.47;;;3.13;;
61527;SDS011;47395;42.032;-8.634;2022-09-03T08:39:40;6.85;;;3.08;;
61527;SDS011;47395;42.032;-8.634;2022-09-03T08:48:54;5.22;;;2.78;;
61527;SDS011;47395;42.032;-8.634;2022-09-03T08:50:58;4.95;;;2.90;;
61527;SDS011;47395;42.032;-8.634;2022-09-03T08:53:24;5.20;;;2.85;;
61527;SDS011;47395;42.032;-8.634;2022-09-03T08:55:34;4.13;;;2.58;;
61527;SDS011;47395;42.032;-8.634;2022-09-03T08:57:47;5.40;;;3.20;;
61527;SDS011;47395;42.032;-8.634;2022-09-03T08:59:51;6.03;;;3.00;;
61527;SDS011;47395;42.032;-8.634;2022-09-03T09:01:55;7.25;;;3.35;;
61527;SDS011;47395;42.032;-8.634;2022-09-03T09:04:17;10.55;;;3.10;;
61527;SDS011;47395;42.032;-8.634;2022-09-03T09:06:42;3.90;;;3.22;;
61527;SDS011;47395;42.032;-8.634;2022-09-03T09:11:14;5.78;;;2.85;;
61527;SDS011;47395;42.032;-8.634;2022-09-03T09:13:51;3.88;;;2.90;;
61527;SDS011;47395;42.032;-8.634;2022-09-03T09:18:22;6.20;;;3.25;;
61527;SDS011;47395;42.032;-8.634;2022-09-03T09:20:44;9.52;;;3.00;;
61527;SDS011;47395;42.032;-8.634;2022-09-03T09:25:07;7.10;;;3.13;;
61527;SDS011;47395;42.032;-8.634;2022-09-03T09:27:14;9.07;;;3.05;;
61527;SDS011;47395;42.032;-8.634;2022-09-03T09:29:18;6.30;;;2.90;;
61527;SDS011;47395;42.032;-8.634;2022-09-03T09:31:19;10.40;;;2.80;;
61527;SDS011;47395;42.032;-8.634;2022-09-03T09:33:20;5.60;;;3.00;;
61527;SDS011;47395;42.032;-8.634;2022-09-03T09:35:22;4.78;;;2.50;;
61527;SDS011;47395;42.032;-8.634;2022-09-03T09:37:23;7.93;;;2.50;;
61527;SDS011;47395;42.032;-8.634;2022-09-03T09:39:24;3.40;;;2.30;;
61527;SDS011;47395;42.032;-8.634;2022-09-03T09:41:25;5.53;;;2.65;;
61527;SDS011;47395;42.032;-8.634;2022-09-03T09:43:26;16.50;;;3.53;;
61527;SDS011;47395;42.032;-8.634;2022-09-03T09:45:27;7.15;;;2.47;;
61527;SDS011;47395;42.032;-8.634;2022-09-03T09:47:28;12.00;;;2.80;;
61527;SDS011;47395;42.032;-8.634;2022-09-03T09:49:42;5.00;;;2.30;;
61527;SDS011;47395;42.032;-8.634;2022-09-03T09:52:01;4.03;;;2.20;;
61527;SDS011;47395;42.032;-8.634;2022-09-03T09:54:14;4.68;;;2.17;;
61527;SDS011;47395;42.032;-8.634;2022-09-03T09:56:21;5.00;;;2.35;;
61527;SDS011;47395;42.032;-8.634;2022-09-03T09:58:26;6.97;;;1.98;;
61527;SDS011;47395;42.032;-8.634;2022-09-03T10:00:29;4.28;;;1.90;;
61527;SDS011;47395;42.032;-8.634;2022-09-03T10:02:33;4.35;;;2.13;;
61527;SDS011;47395;42.032;-8.634;2022-09-03T10:04:35;8.95;;;2.30;;
61527;SDS011;47395;42.032;-8.634;2022-09-03T10:06:37;9.88;;;2.20;;
61527;SDS011;47395;42.032;-8.634;2022-09-03T10:09:04;6.20;;;2.20;;
61527;SDS011;47395;42.032;-8.634;2022-09-03T10:11:10;4.32;;;2.10;;
61527;SDS011;47395;42.032;-8.634;2022-09-03T10:13:25;3.45;;;1.95;;
61527;SDS011;47395;42.032;-8.634;2022-09-03T10:20:57;7.22;;;1.85;;
61527;SDS011;47395;42.032;-8.634;2022-09-03T10:23:24;6.47;;;2.00;;
61527;SDS011;47395;42.032;-8.634;2022-09-03T10:26:12;4.93;;;1.95;;
61527;SDS011;47395;42.032;-8.634;2022-09-03T10:28:09;4.38;;;1.88;;
61527;SDS011;47395;42.032;-8.634;2022-09-03T10:30:11;5.90;;;1.95;;
61527;SDS011;47395;42.032;-8.634;2022-09-03T10:35:09;8.93;;;2.20;;
61527;SDS011;47395;42.032;-8.634;2022-09-03T10:40:29;6.13;;;1.60;;
61527;SDS011;47395;42.032;-8.634;2022-09-03T10:46:19;4.68;;;1.65;;
61527;SDS011;47395;42.032;-8.634;2022-09-03T10:48:24;4.72;;;1.98;;
61527;SDS011;47395;42.032;-8.634;2022-09-03T10:50:55;8.00;;;1.80;;
61527;SDS011;47395;42.032;-8.634;2022-09-03T10:53:06;2.65;;;1.52;;
61527;SDS011;47395;42.032;-8.634;2022-09-03T10:55:19;3.47;;;1.67;;
61527;SDS011;47395;42.032;-8.634;2022-09-03T11:00:20;6.88;;;2.05;;
61527;SDS011;47395;42.032;-8.634;2022-09-03T11:05:04;5.70;;;2.40;;
61527;SDS011;47395;42.032;-8.634;2022-09-03T11:07:16;6.80;;;2.78;;
61527;SDS011;47395;42.032;-8.634;2022-09-03T11:09:23;7.35;;;2.97;;
61527;SDS011;47395;42.032;-8.634;2022-09-03T11:12:02;8.02;;;3.22;;
61527;SDS011;47395;42.032;-8.634;2022-09-03T11:14:13;7.13;;;3.58;;
61527;SDS011;47395;42.032;-8.634;2022-09-03T11:16:25;6.15;;;2.67;;
61527;SDS011;47395;42.032;-8.634;2022-09-03T11:18:40;9.90;;;3.08;;
61527;SDS011;47395;42.032;-8.634;2022-09-03T11:20:46;7.10;;;3.08;;
61527;SDS011;47395;42.032;-8.634;2022-09-03T11:22:54;3.72;;;2.47;;
61527;SDS011;47395;42.032;-8.634;2022-09-03T11:24:59;4.28;;;2.30;;
61527;SDS011;47395;42.032;-8.634;2022-09-03T11:27:15;11.57;;;2.28;;
61527;SDS011;47395;42.032;-8.634;2022-09-03T11:29:32;5.45;;;2.55;;
61527;SDS011;47395;42.032;-8.634;2022-09-03T11:34:44;5.88;;;2.20;;
61527;SDS011;47395;42.032;-8.634;2022-09-03T11:36:46;4.07;;;2.22;;
61527;SDS011;47395;42.032;-8.634;2022-09-03T11:38:47;8.43;;;2.20;;
61527;SDS011;47395;42.032;-8.634;2022-09-03T11:41:10;9.48;;;2.50;;
61527;SDS011;47395;42.032;-8.634;2022-09-03T11:43:27;8.88;;;2.67;;
61527;SDS011;47395;42.032;-8.634;2022-09-03T11:45:34;8.13;;;2.53;;
61527;SDS011;47395;42.032;-8.634;2022-09-03T11:47:38;8.40;;;2.92;;
61527;SDS011;47395;42.032;-8.634;2022-09-03T11:49:44;4.50;;;2.50;;
61527;SDS011;47395;42.032;-8.634;2022-09-03T11:51:54;4.25;;;2.15;;
61527;SDS011;47395;42.032;-8.634;2022-09-03T11:54:04;6.05;;;2.33;;
61527;SDS011;47395;42.032;-8.634;2022-09-03T12:00:27;3.13;;;2.03;;
61527;SDS011;47395;42.032;-8.634;2022-09-03T12:02:28;6.18;;;2.05;;
61527;SDS011;47395;42.032;-8.634;2022-09-03T12:04:41;4.57;;;2.20;;
61527;SDS011;47395;42.032;-8.634;2022-09-03T12:09:12;5.67;;;2.20;;
61527;SDS011;47395;42.032;-8.634;2022-09-03T12:11:55;5.47;;;4.15;;
61527;SDS011;47395;42.032;-8.634;2022-09-03T12:14:51;3.88;;;2.58;;
61527;SDS011;47395;42.032;-8.634;2022-09-03T12:20:12;5.90;;;2.28;;
61527;SDS011;47395;42.032;-8.634;2022-09-03T12:22:14;6.38;;;3.67;;
61527;SDS011;47395;42.032;-8.634;2022-09-03T12:24:17;3.35;;;2.88;;
61527;SDS011;47395;42.032;-8.634;2022-09-03T12:26:20;7.75;;;4.63;;
61527;SDS011;47395;42.032;-8.634;2022-09-03T12:28:23;7.95;;;3.72;;
61527;SDS011;47395;42.032;-8.634;2022-09-03T12:30:28;15.23;;;2.40;;
61527;SDS011;47395;42.032;-8.634;2022-09-03T12:32:31;8.10;;;2.30;;
61527;SDS011;47395;42.032;-8.634;2022-09-03T12:34:37;4.72;;;1.98;;
61527;SDS011;47395;42.032;-8.634;2022-09-03T12:36:47;15.85;;;2.67;;
61527;SDS011;47395;42.032;-8.634;2022-09-03T12:38:53;4.72;;;2.10;;
61527;SDS011;47395;42.032;-8.634;2022-09-03T12:40:54;6.78;;;1.98;;
61527;SDS011;47395;42.032;-8.634;2022-09-03T12:43:10;9.93;;;1.90;;
61527;SDS011;47395;42.032;-8.634;2022-09-03T12:45:18;5.40;;;1.70;;
61527;SDS011;47395;42.032;-8.634;2022-09-03T12:47:22;4.97;;;2.00;;
61527;SDS011;47395;42.032;-8.634;2022-09-03T12:49:23;4.70;;;1.75;;
61527;SDS011;47395;42.032;-8.634;2022-09-03T12:51:24;5.03;;;2.10;;
61527;SDS011;47395;42.032;-8.634;2022-09-03T12:53:25;3.85;;;1.80;;
61527;SDS011;47395;42.032;-8.634;2022-09-03T12:55:39;4.30;;;1.67;;
61527;SDS011;47395;42.032;-8.634;2022-09-03T12:57:50;5.95;;;1.70;;
61527;SDS011;47395;42.032;-8.634;2022-09-03T12:59:55;3.55;;;2.00;;
61527;SDS011;47395;42.032;-8.634;2022-09-03T13:02:01;5.93;;;1.70;;
61527;SDS011;47395;42.032;-8.634;2022-09-03T13:04:11;3.22;;;1.60;;
61527;SDS011;47395;42.032;-8.634;2022-09-03T13:06:18;2.58;;;1.67;;
61527;SDS011;47395;42.032;-8.634;2022-09-03T13:08:23;4.93;;;1.50;;
61527;SDS011;47395;42.032;-8.634;2022-09-03T13:10:29;8.80;;;1.92;;
61527;SDS011;47395;42.032;-8.634;2022-09-03T13:12:42;6.43;;;1.52;;
61527;SDS011;47395;42.032;-8.634;2022-09-03T13:14:47;3.33;;;1.48;;
61527;SDS011;47395;42.032;-8.634;2022-09-03T13:16:55;2.17;;;1.40;;
61527;SDS011;47395;42.032;-8.634;2022-09-03T13:19:18;3.40;;;1.55;;
61527;SDS011;47395;42.032;-8.634;2022-09-03T13:22:33;5.78;;;1.60;;
61527;SDS011;47395;42.032;-8.634;2022-09-03T13:24:18;2.65;;;1.42;;
61527;SDS011;47395;42.032;-8.634;2022-09-03T13:26:59;1.30;;;1.20;;
61527;SDS011;47395;42.032;-8.634;2022-09-03T13:29:16;7.57;;;1.52;;
61527;SDS011;47395;42.032;-8.634;2022-09-03T13:31:59;3.00;;;1.50;;
61527;SDS011;47395;42.032;-8.634;2022-09-03T13:34:16;2.95;;;1.20;;
61527;SDS011;47395;42.032;-8.634;2022-09-03T13:36:26;0.90;;;0.90;;
61527;SDS011;47395;42.032;-8.634;2022-09-03T13:39:05;15.70;;;1.85;;
61527;SDS011;47395;42.032;-8.634;2022-09-03T13:43:51;3.83;;;1.40;;
61527;SDS011;47395;42.032;-8.634;2022-09-03T13:48:09;5.13;;;1.27;;